sensor_id;sensor_type;location;lat;lon;timestamp;P1;durP1;ratioP1;P2;durP2;ratioP2
18544;SDS011;9402;51.460;7.276;2022-11-15T00:01:21;8.27;;;4.20;;
18544;SDS011;9402;51.460;7.276;2022-11-15T00:03:24;11.30;;;4.80;;
18544;SDS011;9402;51.460;7.276;2022-11-15T00:05:27;5.87;;;4.40;;
18544;SDS011;9402;51.460;7.276;2022-11-15T00:07:29;6.23;;;4.10;;
18544;SDS011;9402;51.460;7.276;2022-11-15T00:09:32;5.77;;;3.40;;
18544;SDS011;9402;51.460;7.276;2022-11-15T00:11:34;8.87;;;4.23;;
18544;SDS011;9402;51.460;7.276;2022-11-15T00:13:38;12.03;;;4.90;;
18544;SDS011;9402;51.460;7.276;2022-11-15T00:15:40;9.23;;;5.50;;
18544;SDS011;9402;51.460;7.276;2022-11-15T00:17:43;10.43;;;4.73;;
18544;SDS011;9402;51.460;7.276;2022-11-15T00:19:45;12.50;;;4.73;;
18544;SDS011;9402;51.460;7.276;2022-11-15T00:21:48;14.50;;;5.23;;
18544;SDS011;9402;51.460;7.276;2022-11-15T00:23:50;11.60;;;4.77;;
18544;SDS011;9402;51.460;7.276;2022-11-15T00:25:56;14.73;;;5.03;;
18544;SDS011;9402;51.460;7.276;2022-11-15T00:27:59;7.83;;;3.97;;
18544;SDS011;9402;51.460;7.276;2022-11-15T00:30:03;11.43;;;5.30;;
18544;SDS011;9402;51.460;7.276;2022-11-15T00:32:07;10.30;;;4.60;;
18544;SDS011;9402;51.460;7.276;2022-11-15T00:34:09;11.93;;;4.80;;
18544;SDS011;9402;51.460;7.276;2022-11-15T00:36:12;8.93;;;4.37;;
18544;SDS011;9402;51.460;7.276;2022-11-15T00:38:14;9.80;;;4.37;;
18544;SDS011;9402;51.460;7.276;2022-11-15T00:40:17;11.00;;;5.70;;
18544;SDS011;9402;51.460;7.276;2022-11-15T00:42:19;9.00;;;5.30;;
18544;SDS011;9402;51.460;7.276;2022-11-15T00:44:21;8.57;;;4.60;;
18544;SDS011;9402;51.460;7.276;2022-11-15T00:46:25;7.80;;;4.13;;
18544;SDS011;9402;51.460;7.276;2022-11-15T00:48:27;8.47;;;4.43;;
18544;SDS011;9402;51.460;7.276;2022-11-15T00:50:31;9.43;;;4.90;;
18544;SDS011;9402;51.460;7.276;2022-11-15T00:52:33;9.97;;;4.50;;
18544;SDS011;9402;51.460;7.276;2022-11-15T00:54:36;8.20;;;4.10;;
18544;SDS011;9402;51.460;7.276;2022-11-15T00:56:38;9.23;;;4.03;;
18544;SDS011;9402;51.460;7.276;2022-11-15T00:58:40;10.57;;;4.63;;
18544;SDS011;9402;51.460;7.276;2022-11-15T01:00:43;7.77;;;4.30;;
18544;SDS011;9402;51.460;7.276;2022-11-15T01:02:47;9.70;;;5.07;;
18544;SDS011;9402;51.460;7.276;2022-11-15T01:04:49;10.83;;;4.47;;
18544;SDS011;9402;51.460;7.276;2022-11-15T01:06:52;9.17;;;4.23;;
18544;SDS011;9402;51.460;7.276;2022-11-15T01:08:54;8.00;;;3.73;;
18544;SDS011;9402;51.460;7.276;2022-11-15T01:11:00;12.40;;;5.10;;
18544;SDS011;9402;51.460;7.276;2022-11-15T01:13:02;8.67;;;4.80;;
18544;SDS011;9402;51.460;7.276;2022-11-15T01:15:05;6.50;;;4.30;;
18544;SDS011;9402;51.460;7.276;2022-11-15T01:17:08;7.93;;;3.90;;
18544;SDS011;9402;51.460;7.276;2022-11-15T01:19:12;8.47;;;4.50;;
18544;SDS011;9402;51.460;7.276;2022-11-15T01:21:16;8.17;;;4.90;;
18544;SDS011;9402;51.460;7.276;2022-11-15T01:23:19;6.47;;;3.97;;
18544;SDS011;9402;51.460;7.276;2022-11-15T01:25:22;10.80;;;4.17;;
18544;SDS011;9402;51.460;7.276;2022-11-15T01:27:24;9.70;;;4.17;;
18544;SDS011;9402;51.460;7.276;2022-11-15T01:29:26;6.30;;;4.20;;
18544;SDS011;9402;51.460;7.276;2022-11-15T01:31:29;8.60;;;4.50;;
18544;SDS011;9402;51.460;7.276;2022-11-15T01:33:33;13.83;;;5.00;;
18544;SDS011;9402;51.460;7.276;2022-11-15T01:35:39;7.10;;;4.00;;
18544;SDS011;9402;51.460;7.276;2022-11-15T01:37:41;9.30;;;3.67;;
18544;SDS011;9402;51.460;7.276;2022-11-15T01:39:44;4.43;;;2.80;;
18544;SDS011;9402;51.460;7.276;2022-11-15T01:41:46;8.13;;;4.07;;
18544;SDS011;9402;51.460;7.276;2022-11-15T01:43:49;9.80;;;5.43;;
18544;SDS011;9402;51.460;7.276;2022-11-15T01:45:55;8.80;;;6.00;;
18544;SDS011;9402;51.460;7.276;2022-11-15T01:48:00;7.30;;;3.50;;
18544;SDS011;9402;51.460;7.276;2022-11-15T01:50:03;5.47;;;4.00;;
18544;SDS011;9402;51.460;7.276;2022-11-15T01:52:09;8.90;;;4.00;;
18544;SDS011;9402;51.460;7.276;2022-11-15T01:54:12;7.30;;;3.47;;
18544;SDS011;9402;51.460;7.276;2022-11-15T01:56:18;7.10;;;3.83;;
18544;SDS011;9402;51.460;7.276;2022-11-15T01:58:26;10.93;;;4.07;;
18544;SDS011;9402;51.460;7.276;2022-11-15T02:00:29;4.83;;;3.20;;
18544;SDS011;9402;51.460;7.276;2022-11-15T02:02:35;6.67;;;2.97;;
18544;SDS011;9402;51.460;7.276;2022-11-15T02:04:39;8.77;;;4.73;;
18544;SDS011;9402;51.460;7.276;2022-11-15T02:06:43;13.87;;;4.43;;
18544;SDS011;9402;51.460;7.276;2022-11-15T02:08:47;7.57;;;4.27;;
18544;SDS011;9402;51.460;7.276;2022-11-15T02:10:50;7.70;;;3.80;;
18544;SDS011;9402;51.460;7.276;2022-11-15T02:12:52;7.80;;;4.00;;
18544;SDS011;9402;51.460;7.276;2022-11-15T02:14:55;8.30;;;3.83;;
18544;SDS011;9402;51.460;7.276;2022-11-15T02:16:59;6.13;;;3.53;;
18544;SDS011;9402;51.460;7.276;2022-11-15T02:19:09;6.13;;;3.47;;
18544;SDS011;9402;51.460;7.276;2022-11-15T02:21:21;7.20;;;3.70;;
18544;SDS011;9402;51.460;7.276;2022-11-15T02:23:53;7.70;;;4.20;;
18544;SDS011;9402;51.460;7.276;2022-11-15T02:26:23;10.20;;;4.07;;
18544;SDS011;9402;51.460;7.276;2022-11-15T02:28:45;5.63;;;3.57;;
18544;SDS011;9402;51.460;7.276;2022-11-15T02:30:56;7.90;;;4.37;;
18544;SDS011;9402;51.460;7.276;2022-11-15T02:33:02;7.40;;;3.73;;
18544;SDS011;9402;51.460;7.276;2022-11-15T02:35:11;7.00;;;3.67;;
18544;SDS011;9402;51.460;7.276;2022-11-15T02:37:19;8.37;;;3.70;;
18544;SDS011;9402;51.460;7.276;2022-11-15T02:39:26;10.90;;;4.80;;
18544;SDS011;9402;51.460;7.276;2022-11-15T02:41:34;9.40;;;4.33;;
18544;SDS011;9402;51.460;7.276;2022-11-15T02:43:43;6.47;;;3.57;;
18544;SDS011;9402;51.460;7.276;2022-11-15T02:46:00;7.87;;;4.30;;
18544;SDS011;9402;51.460;7.276;2022-11-15T02:48:04;8.27;;;3.90;;
18544;SDS011;9402;51.460;7.276;2022-11-15T02:50:08;7.00;;;3.70;;
18544;SDS011;9402;51.460;7.276;2022-11-15T02:52:14;10.83;;;5.00;;
18544;SDS011;9402;51.460;7.276;2022-11-15T02:54:18;12.20;;;3.97;;
18544;SDS011;9402;51.460;7.276;2022-11-15T02:56:22;7.23;;;4.00;;
18544;SDS011;9402;51.460;7.276;2022-11-15T02:58:30;11.83;;;3.50;;
18544;SDS011;9402;51.460;7.276;2022-11-15T03:00:50;6.20;;;3.70;;
18544;SDS011;9402;51.460;7.276;2022-11-15T03:03:14;14.33;;;5.57;;
18544;SDS011;9402;51.460;7.276;2022-11-15T03:05:23;8.93;;;4.63;;
18544;SDS011;9402;51.460;7.276;2022-11-15T03:07:32;10.60;;;4.40;;
18544;SDS011;9402;51.460;7.276;2022-11-15T03:09:39;13.03;;;5.07;;
18544;SDS011;9402;51.460;7.276;2022-11-15T03:11:47;15.30;;;5.47;;
18544;SDS011;9402;51.460;7.276;2022-11-15T03:13:53;10.87;;;4.33;;
18544;SDS011;9402;51.460;7.276;2022-11-15T03:16:02;12.30;;;5.90;;
18544;SDS011;9402;51.460;7.276;2022-11-15T03:18:06;12.00;;;4.90;;
18544;SDS011;9402;51.460;7.276;2022-11-15T03:20:13;10.10;;;4.10;;
18544;SDS011;9402;51.460;7.276;2022-11-15T03:22:17;10.67;;;4.83;;
18544;SDS011;9402;51.460;7.276;2022-11-15T03:24:21;8.40;;;4.40;;
18544;SDS011;9402;51.460;7.276;2022-11-15T03:26:26;12.37;;;5.60;;
18544;SDS011;9402;51.460;7.276;2022-11-15T03:28:31;8.77;;;4.30;;
18544;SDS011;9402;51.460;7.276;2022-11-15T03:30:35;10.37;;;5.13;;
18544;SDS011;9402;51.460;7.276;2022-11-15T03:32:40;10.10;;;4.47;;
18544;SDS011;9402;51.460;7.276;2022-11-15T03:34:46;7.40;;;4.37;;
18544;SDS011;9402;51.460;7.276;2022-11-15T03:36:52;12.03;;;5.20;;
18544;SDS011;9402;51.460;7.276;2022-11-15T03:38:56;6.00;;;3.80;;
18544;SDS011;9402;51.460;7.276;2022-11-15T03:41:00;10.80;;;5.40;;
18544;SDS011;9402;51.460;7.276;2022-11-15T03:43:06;14.90;;;4.57;;
18544;SDS011;9402;51.460;7.276;2022-11-15T03:45:15;9.37;;;4.57;;
18544;SDS011;9402;51.460;7.276;2022-11-15T03:47:21;10.07;;;4.70;;
18544;SDS011;9402;51.460;7.276;2022-11-15T03:49:27;9.60;;;4.90;;
18544;SDS011;9402;51.460;7.276;2022-11-15T03:51:32;7.47;;;4.07;;
18544;SDS011;9402;51.460;7.276;2022-11-15T03:53:36;10.70;;;3.90;;
18544;SDS011;9402;51.460;7.276;2022-11-15T03:55:38;7.50;;;4.27;;
18544;SDS011;9402;51.460;7.276;2022-11-15T03:57:41;6.13;;;3.63;;
18544;SDS011;9402;51.460;7.276;2022-11-15T03:59:43;7.37;;;3.80;;
18544;SDS011;9402;51.460;7.276;2022-11-15T04:01:46;9.23;;;4.33;;
18544;SDS011;9402;51.460;7.276;2022-11-15T04:03:48;9.53;;;4.63;;
18544;SDS011;9402;51.460;7.276;2022-11-15T04:05:53;9.27;;;4.40;;
18544;SDS011;9402;51.460;7.276;2022-11-15T04:07:56;9.70;;;4.17;;
18544;SDS011;9402;51.460;7.276;2022-11-15T04:10:00;7.30;;;3.73;;
18544;SDS011;9402;51.460;7.276;2022-11-15T04:12:05;16.40;;;4.17;;
18544;SDS011;9402;51.460;7.276;2022-11-15T04:14:07;6.47;;;3.43;;
18544;SDS011;9402;51.460;7.276;2022-11-15T04:16:10;6.67;;;4.27;;
18544;SDS011;9402;51.460;7.276;2022-11-15T04:18:12;9.13;;;4.00;;
18544;SDS011;9402;51.460;7.276;2022-11-15T04:20:16;11.17;;;4.07;;
18544;SDS011;9402;51.460;7.276;2022-11-15T04:22:37;11.10;;;3.80;;
18544;SDS011;9402;51.460;7.276;2022-11-15T04:24:57;7.50;;;3.67;;
18544;SDS011;9402;51.460;7.276;2022-11-15T04:27:01;4.40;;;3.10;;
18544;SDS011;9402;51.460;7.276;2022-11-15T04:29:03;6.50;;;3.83;;
18544;SDS011;9402;51.460;7.276;2022-11-15T04:31:23;7.40;;;3.43;;
18544;SDS011;9402;51.460;7.276;2022-11-15T04:33:25;19.33;;;4.80;;
18544;SDS011;9402;51.460;7.276;2022-11-15T04:35:28;9.20;;;3.90;;
18544;SDS011;9402;51.460;7.276;2022-11-15T04:37:30;5.50;;;3.23;;
18544;SDS011;9402;51.460;7.276;2022-11-15T04:39:31;8.07;;;4.50;;
18544;SDS011;9402;51.460;7.276;2022-11-15T04:41:35;7.37;;;4.70;;
18544;SDS011;9402;51.460;7.276;2022-11-15T04:43:38;6.50;;;3.40;;
18544;SDS011;9402;51.460;7.276;2022-11-15T04:45:40;4.77;;;2.93;;
18544;SDS011;9402;51.460;7.276;2022-11-15T04:47:43;8.93;;;4.30;;
18544;SDS011;9402;51.460;7.276;2022-11-15T04:49:45;8.30;;;4.07;;
18544;SDS011;9402;51.460;7.276;2022-11-15T04:51:48;7.53;;;4.00;;
18544;SDS011;9402;51.460;7.276;2022-11-15T04:53:50;8.13;;;4.10;;
18544;SDS011;9402;51.460;7.276;2022-11-15T04:55:53;13.70;;;4.93;;
18544;SDS011;9402;51.460;7.276;2022-11-15T04:57:59;8.90;;;4.17;;
18544;SDS011;9402;51.460;7.276;2022-11-15T05:00:03;9.90;;;4.50;;
18544;SDS011;9402;51.460;7.276;2022-11-15T05:02:06;6.13;;;4.10;;
18544;SDS011;9402;51.460;7.276;2022-11-15T05:04:09;5.83;;;3.60;;
18544;SDS011;9402;51.460;7.276;2022-11-15T05:06:19;10.37;;;4.40;;
18544;SDS011;9402;51.460;7.276;2022-11-15T05:08:21;5.83;;;3.60;;
18544;SDS011;9402;51.460;7.276;2022-11-15T05:10:24;11.00;;;4.70;;
18544;SDS011;9402;51.460;7.276;2022-11-15T05:12:26;8.90;;;4.80;;
18544;SDS011;9402;51.460;7.276;2022-11-15T05:14:30;9.37;;;4.43;;
18544;SDS011;9402;51.460;7.276;2022-11-15T05:16:32;7.37;;;3.70;;
18544;SDS011;9402;51.460;7.276;2022-11-15T05:18:34;6.23;;;4.10;;
18544;SDS011;9402;51.460;7.276;2022-11-15T05:20:40;6.07;;;3.60;;
18544;SDS011;9402;51.460;7.276;2022-11-15T05:22:42;6.80;;;3.97;;
18544;SDS011;9402;51.460;7.276;2022-11-15T05:24:45;10.10;;;4.03;;
18544;SDS011;9402;51.460;7.276;2022-11-15T05:26:47;7.73;;;4.50;;
18544;SDS011;9402;51.460;7.276;2022-11-15T05:28:51;7.43;;;3.63;;
18544;SDS011;9402;51.460;7.276;2022-11-15T05:31:00;8.30;;;4.10;;
18544;SDS011;9402;51.460;7.276;2022-11-15T05:33:03;7.10;;;4.30;;
18544;SDS011;9402;51.460;7.276;2022-11-15T05:35:05;9.33;;;4.40;;
18544;SDS011;9402;51.460;7.276;2022-11-15T05:37:10;11.50;;;4.17;;
18544;SDS011;9402;51.460;7.276;2022-11-15T05:39:12;8.10;;;4.23;;
18544;SDS011;9402;51.460;7.276;2022-11-15T05:41:15;6.70;;;4.20;;
18544;SDS011;9402;51.460;7.276;2022-11-15T05:43:19;8.90;;;4.40;;
18544;SDS011;9402;51.460;7.276;2022-11-15T05:45:21;6.97;;;4.30;;
18544;SDS011;9402;51.460;7.276;2022-11-15T05:47:25;6.03;;;3.70;;
18544;SDS011;9402;51.460;7.276;2022-11-15T05:49:30;12.07;;;3.63;;
18544;SDS011;9402;51.460;7.276;2022-11-15T05:51:33;6.57;;;3.90;;
18544;SDS011;9402;51.460;7.276;2022-11-15T05:53:36;8.90;;;4.43;;
18544;SDS011;9402;51.460;7.276;2022-11-15T05:55:39;8.50;;;3.80;;
18544;SDS011;9402;51.460;7.276;2022-11-15T05:57:42;9.30;;;4.63;;
18544;SDS011;9402;51.460;7.276;2022-11-15T05:59:44;5.73;;;3.90;;
18544;SDS011;9402;51.460;7.276;2022-11-15T06:01:46;6.90;;;4.00;;
18544;SDS011;9402;51.460;7.276;2022-11-15T06:03:51;9.03;;;4.73;;
18544;SDS011;9402;51.460;7.276;2022-11-15T06:05:53;6.43;;;4.27;;
18544;SDS011;9402;51.460;7.276;2022-11-15T06:07:57;7.00;;;4.50;;
18544;SDS011;9402;51.460;7.276;2022-11-15T06:09:59;7.60;;;4.30;;
18544;SDS011;9402;51.460;7.276;2022-11-15T06:12:02;7.17;;;4.27;;
18544;SDS011;9402;51.460;7.276;2022-11-15T06:14:04;9.83;;;4.43;;
18544;SDS011;9402;51.460;7.276;2022-11-15T06:16:07;7.67;;;4.70;;
18544;SDS011;9402;51.460;7.276;2022-11-15T06:18:09;5.00;;;3.37;;
18544;SDS011;9402;51.460;7.276;2022-11-15T06:20:13;6.67;;;3.83;;
18544;SDS011;9402;51.460;7.276;2022-11-15T06:22:16;7.13;;;3.20;;
18544;SDS011;9402;51.460;7.276;2022-11-15T06:24:18;7.47;;;3.80;;
18544;SDS011;9402;51.460;7.276;2022-11-15T06:26:20;5.80;;;3.70;;
18544;SDS011;9402;51.460;7.276;2022-11-15T06:28:23;13.23;;;4.27;;
18544;SDS011;9402;51.460;7.276;2022-11-15T06:30:25;7.73;;;3.10;;
18544;SDS011;9402;51.460;7.276;2022-11-15T06:32:28;5.37;;;3.20;;
18544;SDS011;9402;51.460;7.276;2022-11-15T06:34:31;5.37;;;3.20;;
18544;SDS011;9402;51.460;7.276;2022-11-15T06:36:37;3.47;;;2.37;;
18544;SDS011;9402;51.460;7.276;2022-11-15T06:38:39;4.40;;;2.87;;
18544;SDS011;9402;51.460;7.276;2022-11-15T06:40:42;5.03;;;2.60;;
18544;SDS011;9402;51.460;7.276;2022-11-15T06:42:44;5.23;;;2.40;;
18544;SDS011;9402;51.460;7.276;2022-11-15T06:44:46;5.77;;;2.53;;
18544;SDS011;9402;51.460;7.276;2022-11-15T06:46:49;12.17;;;2.60;;
18544;SDS011;9402;51.460;7.276;2022-11-15T06:48:51;4.80;;;3.00;;
18544;SDS011;9402;51.460;7.276;2022-11-15T06:50:54;6.17;;;2.73;;
18544;SDS011;9402;51.460;7.276;2022-11-15T06:53:01;4.97;;;2.87;;
18544;SDS011;9402;51.460;7.276;2022-11-15T06:55:04;4.97;;;2.67;;
18544;SDS011;9402;51.460;7.276;2022-11-15T06:57:08;3.90;;;2.27;;
18544;SDS011;9402;51.460;7.276;2022-11-15T06:59:10;3.90;;;1.80;;
18544;SDS011;9402;51.460;7.276;2022-11-15T07:01:12;3.17;;;2.07;;
18544;SDS011;9402;51.460;7.276;2022-11-15T07:03:15;4.50;;;2.00;;
18544;SDS011;9402;51.460;7.276;2022-11-15T07:05:17;3.10;;;1.57;;
18544;SDS011;9402;51.460;7.276;2022-11-15T07:07:20;3.23;;;1.93;;
18544;SDS011;9402;51.460;7.276;2022-11-15T07:09:23;4.47;;;2.23;;
18544;SDS011;9402;51.460;7.276;2022-11-15T07:11:26;3.80;;;2.37;;
18544;SDS011;9402;51.460;7.276;2022-11-15T07:13:29;3.27;;;2.07;;
18544;SDS011;9402;51.460;7.276;2022-11-15T07:15:33;3.37;;;1.83;;
18544;SDS011;9402;51.460;7.276;2022-11-15T07:17:35;6.30;;;2.07;;
18544;SDS011;9402;51.460;7.276;2022-11-15T07:19:37;4.10;;;2.13;;
18544;SDS011;9402;51.460;7.276;2022-11-15T07:21:40;5.97;;;2.13;;
18544;SDS011;9402;51.460;7.276;2022-11-15T07:23:42;2.57;;;1.60;;
18544;SDS011;9402;51.460;7.276;2022-11-15T07:25:46;7.27;;;1.73;;
18544;SDS011;9402;51.460;7.276;2022-11-15T07:27:53;2.87;;;1.70;;
18544;SDS011;9402;51.460;7.276;2022-11-15T07:29:56;3.70;;;1.30;;
18544;SDS011;9402;51.460;7.276;2022-11-15T07:31:59;3.63;;;1.87;;
18544;SDS011;9402;51.460;7.276;2022-11-15T07:34:01;7.83;;;2.70;;
18544;SDS011;9402;51.460;7.276;2022-11-15T07:36:04;2.40;;;1.23;;
18544;SDS011;9402;51.460;7.276;2022-11-15T07:38:08;3.00;;;1.67;;
18544;SDS011;9402;51.460;7.276;2022-11-15T07:40:11;3.00;;;1.73;;
18544;SDS011;9402;51.460;7.276;2022-11-15T07:42:15;3.93;;;1.40;;
18544;SDS011;9402;51.460;7.276;2022-11-15T07:44:34;3.80;;;1.80;;
18544;SDS011;9402;51.460;7.276;2022-11-15T07:46:37;3.30;;;1.87;;
18544;SDS011;9402;51.460;7.276;2022-11-15T07:48:39;3.33;;;1.87;;
18544;SDS011;9402;51.460;7.276;2022-11-15T07:50:42;2.20;;;1.30;;
18544;SDS011;9402;51.460;7.276;2022-11-15T07:52:44;2.90;;;1.60;;
18544;SDS011;9402;51.460;7.276;2022-11-15T07:54:47;3.40;;;1.30;;
18544;SDS011;9402;51.460;7.276;2022-11-15T07:56:49;2.73;;;1.20;;
18544;SDS011;9402;51.460;7.276;2022-11-15T07:58:53;1.90;;;1.30;;
18544;SDS011;9402;51.460;7.276;2022-11-15T08:00:55;2.90;;;1.40;;
18544;SDS011;9402;51.460;7.276;2022-11-15T08:03:02;2.73;;;1.47;;
18544;SDS011;9402;51.460;7.276;2022-11-15T08:05:05;3.63;;;1.27;;
18544;SDS011;9402;51.460;7.276;2022-11-15T08:07:07;3.90;;;2.00;;
18544;SDS011;9402;51.460;7.276;2022-11-15T08:09:10;7.13;;;1.73;;
18544;SDS011;9402;51.460;7.276;2022-11-15T08:11:12;4.57;;;1.50;;
18544;SDS011;9402;51.460;7.276;2022-11-15T08:13:15;10.30;;;1.30;;
18544;SDS011;9402;51.460;7.276;2022-11-15T08:15:18;4.80;;;1.50;;
18544;SDS011;9402;51.460;7.276;2022-11-15T08:17:21;4.80;;;1.70;;
18544;SDS011;9402;51.460;7.276;2022-11-15T08:19:23;3.20;;;1.50;;
18544;SDS011;9402;51.460;7.276;2022-11-15T08:21:26;2.60;;;1.50;;
18544;SDS011;9402;51.460;7.276;2022-11-15T08:23:28;4.97;;;1.33;;
18544;SDS011;9402;51.460;7.276;2022-11-15T08:25:32;2.90;;;1.40;;
18544;SDS011;9402;51.460;7.276;2022-11-15T08:27:35;2.30;;;1.40;;
18544;SDS011;9402;51.460;7.276;2022-11-15T08:29:37;4.03;;;1.30;;
18544;SDS011;9402;51.460;7.276;2022-11-15T08:31:41;1.80;;;1.10;;
18544;SDS011;9402;51.460;7.276;2022-11-15T08:33:44;2.93;;;1.60;;
18544;SDS011;9402;51.460;7.276;2022-11-15T08:35:46;3.97;;;1.33;;
18544;SDS011;9402;51.460;7.276;2022-11-15T08:37:49;4.40;;;1.27;;
18544;SDS011;9402;51.460;7.276;2022-11-15T08:39:52;2.80;;;1.20;;
18544;SDS011;9402;51.460;7.276;2022-11-15T08:41:55;3.37;;;1.83;;
18544;SDS011;9402;51.460;7.276;2022-11-15T08:43:57;1.90;;;1.40;;
18544;SDS011;9402;51.460;7.276;2022-11-15T08:45:59;1.60;;;1.10;;
18544;SDS011;9402;51.460;7.276;2022-11-15T08:48:03;4.53;;;1.67;;
18544;SDS011;9402;51.460;7.276;2022-11-15T08:50:06;3.33;;;1.30;;
18544;SDS011;9402;51.460;7.276;2022-11-15T08:52:09;1.87;;;1.20;;
18544;SDS011;9402;51.460;7.276;2022-11-15T08:54:11;1.70;;;1.10;;
18544;SDS011;9402;51.460;7.276;2022-11-15T08:56:14;1.90;;;1.10;;
18544;SDS011;9402;51.460;7.276;2022-11-15T08:58:17;1.87;;;1.10;;
18544;SDS011;9402;51.460;7.276;2022-11-15T09:00:19;2.37;;;1.40;;
18544;SDS011;9402;51.460;7.276;2022-11-15T09:02:21;1.53;;;0.97;;
18544;SDS011;9402;51.460;7.276;2022-11-15T09:04:25;3.53;;;1.13;;
18544;SDS011;9402;51.460;7.276;2022-11-15T09:06:28;2.03;;;1.30;;
18544;SDS011;9402;51.460;7.276;2022-11-15T09:08:30;1.70;;;1.30;;
18544;SDS011;9402;51.460;7.276;2022-11-15T09:10:33;3.07;;;1.63;;
18544;SDS011;9402;51.460;7.276;2022-11-15T09:12:35;1.60;;;1.10;;
18544;SDS011;9402;51.460;7.276;2022-11-15T09:14:38;1.50;;;1.10;;
18544;SDS011;9402;51.460;7.276;2022-11-15T09:16:40;1.87;;;0.97;;
18544;SDS011;9402;51.460;7.276;2022-11-15T09:18:43;3.23;;;1.00;;
18544;SDS011;9402;51.460;7.276;2022-11-15T09:20:46;1.93;;;1.17;;
18544;SDS011;9402;51.460;7.276;2022-11-15T09:22:49;5.30;;;1.10;;
18544;SDS011;9402;51.460;7.276;2022-11-15T09:24:51;6.23;;;1.17;;
18544;SDS011;9402;51.460;7.276;2022-11-15T09:26:53;2.37;;;0.90;;
18544;SDS011;9402;51.460;7.276;2022-11-15T09:28:56;2.13;;;1.30;;
18544;SDS011;9402;51.460;7.276;2022-11-15T09:30:59;1.30;;;0.90;;
18544;SDS011;9402;51.460;7.276;2022-11-15T09:33:05;1.40;;;1.00;;
18544;SDS011;9402;51.460;7.276;2022-11-15T09:35:08;4.60;;;1.20;;
18544;SDS011;9402;51.460;7.276;2022-11-15T09:37:12;1.50;;;1.10;;
18544;SDS011;9402;51.460;7.276;2022-11-15T09:39:15;2.80;;;1.33;;
18544;SDS011;9402;51.460;7.276;2022-11-15T09:43:40;2.43;;;1.10;;
18544;SDS011;9402;51.460;7.276;2022-11-15T09:45:49;2.57;;;1.00;;
18544;SDS011;9402;51.460;7.276;2022-11-15T09:48:15;1.70;;;0.80;;
18544;SDS011;9402;51.460;7.276;2022-11-15T09:50:36;3.23;;;0.87;;
18544;SDS011;9402;51.460;7.276;2022-11-15T09:52:43;2.07;;;1.00;;
18544;SDS011;9402;51.460;7.276;2022-11-15T09:54:47;2.00;;;0.97;;
18544;SDS011;9402;51.460;7.276;2022-11-15T09:56:50;2.20;;;1.10;;
18544;SDS011;9402;51.460;7.276;2022-11-15T09:58:57;2.60;;;0.80;;
18544;SDS011;9402;51.460;7.276;2022-11-15T10:01:07;2.50;;;0.97;;
18544;SDS011;9402;51.460;7.276;2022-11-15T10:03:13;1.67;;;0.90;;
18544;SDS011;9402;51.460;7.276;2022-11-15T10:05:18;5.67;;;0.90;;
18544;SDS011;9402;51.460;7.276;2022-11-15T10:07:25;6.17;;;0.97;;
18544;SDS011;9402;51.460;7.276;2022-11-15T10:09:32;2.03;;;0.90;;
18544;SDS011;9402;51.460;7.276;2022-11-15T10:11:40;1.57;;;0.90;;
18544;SDS011;9402;51.460;7.276;2022-11-15T10:13:44;1.67;;;0.90;;
18544;SDS011;9402;51.460;7.276;2022-11-15T10:15:48;3.00;;;0.93;;
18544;SDS011;9402;51.460;7.276;2022-11-15T10:18:04;4.40;;;0.80;;
18544;SDS011;9402;51.460;7.276;2022-11-15T10:20:17;8.83;;;0.90;;
18544;SDS011;9402;51.460;7.276;2022-11-15T10:22:24;1.40;;;1.00;;
18544;SDS011;9402;51.460;7.276;2022-11-15T10:24:28;1.40;;;1.20;;
18544;SDS011;9402;51.460;7.276;2022-11-15T10:26:38;2.13;;;0.90;;
18544;SDS011;9402;51.460;7.276;2022-11-15T10:28:46;1.27;;;0.70;;
18544;SDS011;9402;51.460;7.276;2022-11-15T10:30:49;1.30;;;0.80;;
18544;SDS011;9402;51.460;7.276;2022-11-15T10:32:52;3.90;;;1.00;;
18544;SDS011;9402;51.460;7.276;2022-11-15T10:34:54;2.80;;;0.80;;
18544;SDS011;9402;51.460;7.276;2022-11-15T10:36:57;1.20;;;0.90;;
18544;SDS011;9402;51.460;7.276;2022-11-15T10:39:01;2.10;;;0.90;;
18544;SDS011;9402;51.460;7.276;2022-11-15T10:41:07;4.70;;;1.30;;
18544;SDS011;9402;51.460;7.276;2022-11-15T10:43:14;2.03;;;0.83;;
18544;SDS011;9402;51.460;7.276;2022-11-15T10:45:25;1.23;;;0.70;;
18544;SDS011;9402;51.460;7.276;2022-11-15T10:47:29;1.50;;;0.90;;
18544;SDS011;9402;51.460;7.276;2022-11-15T10:49:33;1.37;;;0.80;;
18544;SDS011;9402;51.460;7.276;2022-11-15T10:51:38;10.37;;;2.50;;
18544;SDS011;9402;51.460;7.276;2022-11-15T10:53:43;1.40;;;0.80;;
18544;SDS011;9402;51.460;7.276;2022-11-15T10:55:47;3.30;;;0.90;;
18544;SDS011;9402;51.460;7.276;2022-11-15T10:57:53;2.23;;;0.80;;
18544;SDS011;9402;51.460;7.276;2022-11-15T10:59:57;1.10;;;0.80;;
18544;SDS011;9402;51.460;7.276;2022-11-15T11:02:01;1.57;;;0.83;;
18544;SDS011;9402;51.460;7.276;2022-11-15T11:04:04;1.90;;;0.90;;
18544;SDS011;9402;51.460;7.276;2022-11-15T11:06:09;1.53;;;0.80;;
18544;SDS011;9402;51.460;7.276;2022-11-15T11:08:20;1.30;;;0.80;;
18544;SDS011;9402;51.460;7.276;2022-11-15T11:10:24;3.80;;;0.97;;
18544;SDS011;9402;51.460;7.276;2022-11-15T11:12:31;6.80;;;1.20;;
18544;SDS011;9402;51.460;7.276;2022-11-15T11:14:36;3.10;;;0.87;;
18544;SDS011;9402;51.460;7.276;2022-11-15T11:16:41;5.77;;;1.00;;
18544;SDS011;9402;51.460;7.276;2022-11-15T11:18:47;1.10;;;0.70;;
18544;SDS011;9402;51.460;7.276;2022-11-15T11:20:54;3.10;;;0.80;;
18544;SDS011;9402;51.460;7.276;2022-11-15T11:23:03;3.97;;;1.80;;
18544;SDS011;9402;51.460;7.276;2022-11-15T11:25:26;5.43;;;0.90;;
18544;SDS011;9402;51.460;7.276;2022-11-15T11:27:36;1.20;;;0.70;;
18544;SDS011;9402;51.460;7.276;2022-11-15T11:29:47;1.50;;;0.80;;
18544;SDS011;9402;51.460;7.276;2022-11-15T11:32:01;2.13;;;0.97;;
18544;SDS011;9402;51.460;7.276;2022-11-15T11:34:12;1.20;;;0.70;;
18544;SDS011;9402;51.460;7.276;2022-11-15T11:36:19;3.83;;;0.70;;
18544;SDS011;9402;51.460;7.276;2022-11-15T11:38:34;2.33;;;0.97;;
18544;SDS011;9402;51.460;7.276;2022-11-15T11:40:43;1.70;;;0.90;;
18544;SDS011;9402;51.460;7.276;2022-11-15T11:42:52;2.63;;;0.90;;
18544;SDS011;9402;51.460;7.276;2022-11-15T11:45:01;1.67;;;0.80;;
18544;SDS011;9402;51.460;7.276;2022-11-15T11:47:14;3.27;;;0.87;;
18544;SDS011;9402;51.460;7.276;2022-11-15T11:49:21;1.27;;;0.80;;
18544;SDS011;9402;51.460;7.276;2022-11-15T11:51:28;3.70;;;0.90;;
18544;SDS011;9402;51.460;7.276;2022-11-15T11:53:35;1.67;;;0.80;;
18544;SDS011;9402;51.460;7.276;2022-11-15T11:55:42;3.00;;;0.73;;
18544;SDS011;9402;51.460;7.276;2022-11-15T11:57:46;1.10;;;0.70;;
18544;SDS011;9402;51.460;7.276;2022-11-15T11:59:53;1.43;;;0.90;;
18544;SDS011;9402;51.460;7.276;2022-11-15T12:01:59;1.90;;;0.80;;
18544;SDS011;9402;51.460;7.276;2022-11-15T12:04:11;2.20;;;0.80;;
18544;SDS011;9402;51.460;7.276;2022-11-15T12:06:19;1.60;;;0.83;;
18544;SDS011;9402;51.460;7.276;2022-11-15T12:08:27;2.03;;;0.70;;
18544;SDS011;9402;51.460;7.276;2022-11-15T12:10:33;7.30;;;0.80;;
18544;SDS011;9402;51.460;7.276;2022-11-15T12:12:38;11.43;;;0.90;;
18544;SDS011;9402;51.460;7.276;2022-11-15T12:14:45;1.60;;;1.00;;
18544;SDS011;9402;51.460;7.276;2022-11-15T12:16:49;1.73;;;0.90;;
18544;SDS011;9402;51.460;7.276;2022-11-15T12:18:54;2.50;;;0.80;;
18544;SDS011;9402;51.460;7.276;2022-11-15T12:20:58;1.20;;;0.80;;
18544;SDS011;9402;51.460;7.276;2022-11-15T12:23:04;1.73;;;0.80;;
18544;SDS011;9402;51.460;7.276;2022-11-15T12:25:14;1.40;;;0.80;;
18544;SDS011;9402;51.460;7.276;2022-11-15T12:27:21;3.47;;;1.17;;
18544;SDS011;9402;51.460;7.276;2022-11-15T12:29:29;1.20;;;0.90;;
18544;SDS011;9402;51.460;7.276;2022-11-15T12:31:36;5.03;;;1.57;;
18544;SDS011;9402;51.460;7.276;2022-11-15T12:33:41;3.87;;;0.90;;
18544;SDS011;9402;51.460;7.276;2022-11-15T12:35:56;1.20;;;0.80;;
18544;SDS011;9402;51.460;7.276;2022-11-15T12:38:00;5.20;;;0.90;;
18544;SDS011;9402;51.460;7.276;2022-11-15T12:40:03;4.17;;;0.90;;
18544;SDS011;9402;51.460;7.276;2022-11-15T12:42:39;2.10;;;0.80;;
18544;SDS011;9402;51.460;7.276;2022-11-15T12:44:58;1.70;;;0.70;;
18544;SDS011;9402;51.460;7.276;2022-11-15T12:47:02;1.30;;;0.60;;